PRIVATE WETTERSTATION BILLIGHEIM-ALLFELD                       ZURCK
Wetterdaten: Dienstag, 07.10.2014
Datum Zeit Temp. A. Temp. A. min Temp. A. max Feuchte A. Luftdruck Regen Wind Richtung Richtung Sonnenschein ET Solar Taupunkt Windchill Windben Empfang
07.10.2014 00:00 9,1 C 9,1 C 9,1 C 91 % 1009,6 hPa 0,0 l/m 0,0 km/h (0 Bft) N-NO 22 0 min 0,000 mm 0 W/m 7,7 C 9,1 C 4,8 km/h (1 Bft) 98 %
07.10.2014 00:10 8,9 C 8,9 C 9,0 C 91 % 1009,5 hPa 0,0 l/m 0,0 km/h (0 Bft) N-NO 22 0 min 0,000 mm 0 W/m 7,5 C 8,9 C 4,8 km/h (1 Bft) 98 %
07.10.2014 00:20 8,8 C 8,8 C 8,9 C 91 % 1009,4 hPa 0,0 l/m 0,0 km/h (0 Bft) NW 315 0 min 0,000 mm 0 W/m 7,4 C 8,8 C 3,2 km/h (1 Bft) 98 %
07.10.2014 00:30 8,7 C 8,7 C 8,8 C 91 % 1009,4 hPa 0,0 l/m 0,0 km/h (0 Bft) N 0 0 min 0,000 mm 0 W/m 7,3 C 8,7 C 0,0 km/h (0 Bft) 97 %
07.10.2014 00:40 8,7 C 8,7 C 8,7 C 91 % 1009,3 hPa 0,0 l/m 1,6 km/h (1 Bft) NW 315 0 min 0,000 mm 0 W/m 7,3 C 8,7 C 4,8 km/h (1 Bft) 97 %
07.10.2014 00:50 8,6 C 8,6 C 8,7 C 91 % 1009,3 hPa 0,0 l/m 0,0 km/h (0 Bft) N-NW 337 0 min 0,000 mm 0 W/m 7,2 C 8,6 C 1,6 km/h (1 Bft) 97 %
07.10.2014 01:00 8,6 C 8,6 C 8,7 C 91 % 1009,3 hPa 0,0 l/m 0,0 km/h (0 Bft) N-NW 337 0 min 0,000 mm 0 W/m 7,2 C 8,6 C 3,2 km/h (1 Bft) 98 %
07.10.2014 01:10 8,5 C 8,5 C 8,6 C 91 % 1009,3 hPa 0,0 l/m 0,0 km/h (0 Bft) N-NW 337 0 min 0,000 mm 0 W/m 7,1 C 8,5 C 1,6 km/h (1 Bft) 98 %
07.10.2014 01:20 8,4 C 8,4 C 8,5 C 91 % 1009,1 hPa 0,0 l/m 0,0 km/h (0 Bft) N 360 0 min 0,000 mm 0 W/m 7,0 C 8,4 C 1,6 km/h (1 Bft) 97 %
07.10.2014 01:30 8,3 C 8,3 C 8,4 C 91 % 1009,0 hPa 0,0 l/m 0,0 km/h (0 Bft) N 360 0 min 0,000 mm 0 W/m 6,9 C 8,3 C 3,2 km/h (1 Bft) 98 %
07.10.2014 01:40 8,3 C 8,3 C 8,3 C 91 % 1008,8 hPa 0,0 l/m 0,0 km/h (0 Bft) N 360 0 min 0,000 mm 0 W/m 6,9 C 8,3 C 1,6 km/h (1 Bft) 98 %
07.10.2014 01:50 8,2 C 8,2 C 8,3 C 91 % 1008,9 hPa 0,0 l/m 0,0 km/h (0 Bft) N 360 0 min 0,000 mm 0 W/m 6,8 C 8,2 C 1,6 km/h (1 Bft) 98 %
07.10.2014 02:00 8,1 C 8,1 C 8,2 C 91 % 1008,9 hPa 0,0 l/m 0,0 km/h (0 Bft) N 360 0 min 0,000 mm 0 W/m 6,7 C 8,1 C 1,6 km/h (1 Bft) 97 %
07.10.2014 02:10 8,0 C 8,0 C 8,1 C 91 % 1009,0 hPa 0,0 l/m 0,0 km/h (0 Bft) N 0 0 min 0,000 mm 0 W/m 6,6 C 8,0 C 0,0 km/h (0 Bft) 98 %
07.10.2014 02:20 8,0 C 8,0 C 8,0 C 91 % 1008,7 hPa 0,0 l/m 0,0 km/h (0 Bft) N 360 0 min 0,000 mm 0 W/m 6,6 C 8,0 C 3,2 km/h (1 Bft) 98 %
07.10.2014 02:30 8,1 C 8,0 C 8,1 C 91 % 1008,6 hPa 0,0 l/m 0,0 km/h (0 Bft) N 360 0 min 0,000 mm 0 W/m 6,7 C 8,1 C 1,6 km/h (1 Bft) 98 %
07.10.2014 02:40 8,1 C 8,1 C 8,1 C 91 % 1008,5 hPa 0,0 l/m 0,0 km/h (0 Bft) N 0 0 min 0,000 mm 0 W/m 6,7 C 8,1 C 0,0 km/h (0 Bft) 98 %
07.10.2014 02:50 8,1 C 8,1 C 8,1 C 91 % 1008,3 hPa 0,0 l/m 0,0 km/h (0 Bft) N 0 0 min 0,000 mm 0 W/m 6,7 C 8,1 C 0,0 km/h (0 Bft) 98 %
07.10.2014 03:00 8,2 C 8,1 C 8,2 C 91 % 1008,3 hPa 0,0 l/m 0,0 km/h (0 Bft) N 360 0 min 0,000 mm 0 W/m 6,8 C 8,2 C 3,2 km/h (1 Bft) 98 %
07.10.2014 03:10 8,2 C 8,2 C 8,2 C 90 % 1008,2 hPa 0,0 l/m 0,0 km/h (0 Bft) N 360 0 min 0,000 mm 0 W/m 6,7 C 8,2 C 3,2 km/h (1 Bft) 97 %
07.10.2014 03:20 8,2 C 8,2 C 8,2 C 90 % 1008,2 hPa 0,2 l/m 0,0 km/h (0 Bft) N 360 0 min 0,000 mm 0 W/m 6,7 C 8,2 C 3,2 km/h (1 Bft) 98 %
07.10.2014 03:30 8,3 C 8,2 C 8,3 C 90 % 1008,1 hPa 0,0 l/m 0,0 km/h (0 Bft) N 360 0 min 0,000 mm 0 W/m 6,8 C 8,3 C 1,6 km/h (1 Bft) 98 %
07.10.2014 03:40 8,3 C 8,3 C 8,3 C 90 % 1008,1 hPa 0,0 l/m 0,0 km/h (0 Bft) N 360 0 min 0,000 mm 0 W/m 6,8 C 8,3 C 3,2 km/h (1 Bft) 98 %
07.10.2014 03:50 8,4 C 8,3 C 8,4 C 90 % 1008,0 hPa 0,0 l/m 0,0 km/h (0 Bft) N 360 0 min 0,000 mm 0 W/m 6,9 C 8,4 C 1,6 km/h (1 Bft) 97 %
07.10.2014 04:00 8,5 C 8,4 C 8,5 C 90 % 1007,8 hPa 0,0 l/m 0,0 km/h (0 Bft) N 360 0 min 0,000 mm 0 W/m 7,0 C 8,5 C 1,6 km/h (1 Bft) 97 %
07.10.2014 04:10 8,5 C 8,5 C 8,6 C 90 % 1007,8 hPa 0,0 l/m 0,0 km/h (0 Bft) N 0 0 min 0,000 mm 0 W/m 7,0 C 8,5 C 0,0 km/h (0 Bft) 98 %
07.10.2014 04:20 8,6 C 8,5 C 8,6 C 90 % 1008,0 hPa 0,0 l/m 0,0 km/h (0 Bft) N 360 0 min 0,000 mm 0 W/m 7,1 C 8,6 C 3,2 km/h (1 Bft) 97 %
07.10.2014 04:30 8,6 C 8,6 C 8,6 C 90 % 1008,1 hPa 0,0 l/m 0,0 km/h (0 Bft) N 360 0 min 0,000 mm 0 W/m 7,1 C 8,6 C 4,8 km/h (1 Bft) 98 %
07.10.2014 04:40 8,7 C 8,6 C 8,7 C 90 % 1008,0 hPa 0,0 l/m 0,0 km/h (0 Bft) N 360 0 min 0,000 mm 0 W/m 7,2 C 8,7 C 3,2 km/h (1 Bft) 97 %
07.10.2014 04:50 8,9 C 8,7 C 8,9 C 90 % 1008,0 hPa 0,0 l/m 0,0 km/h (0 Bft) N 360 0 min 0,000 mm 0 W/m 7,4 C 8,9 C 1,6 km/h (1 Bft) 99 %
07.10.2014 05:00 9,3 C 8,9 C 9,3 C 90 % 1008,0 hPa 0,4 l/m 1,6 km/h (1 Bft) O-NO 67 0 min 0,000 mm 0 W/m 7,7 C 9,3 C 4,8 km/h (1 Bft) 89 %
07.10.2014 05:10 10,1 C 9,3 C 10,1 C 90 % 1007,9 hPa 0,2 l/m 3,2 km/h (1 Bft) SO 135 0 min 0,000 mm 0 W/m 8,5 C 10,1 C 8,0 km/h (2 Bft) 96 %
07.10.2014 05:20 10,4 C 10,1 C 10,4 C 90 % 1007,8 hPa 0,2 l/m 4,8 km/h (1 Bft) SO 135 0 min 0,000 mm 0 W/m 8,8 C 10,4 C 9,7 km/h (2 Bft) 98 %
07.10.2014 05:30 10,7 C 10,4 C 10,7 C 90 % 1007,5 hPa 0,2 l/m 4,8 km/h (1 Bft) SO 135 0 min 0,000 mm 0 W/m 9,1 C 10,7 C 11,3 km/h (2 Bft) 97 %
07.10.2014 05:40 10,9 C 10,7 C 10,9 C 90 % 1007,4 hPa 0,2 l/m 3,2 km/h (1 Bft) SO 135 0 min 0,000 mm 0 W/m 9,3 C 10,9 C 14,5 km/h (3 Bft) 98 %
07.10.2014 05:50 11,1 C 10,9 C 11,1 C 90 % 1007,4 hPa 0,0 l/m 3,2 km/h (1 Bft) SO 135 0 min 0,000 mm 0 W/m 9,5 C 11,1 C 11,3 km/h (2 Bft) 97 %
07.10.2014 06:00 11,3 C 11,1 C 11,3 C 90 % 1007,5 hPa 0,2 l/m 6,4 km/h (2 Bft) SO 135 0 min 0,000 mm 0 W/m 9,7 C 11,3 C 14,5 km/h (3 Bft) 98 %
07.10.2014 06:10 11,5 C 11,3 C 11,5 C 90 % 1007,3 hPa 0,0 l/m 8,0 km/h (2 Bft) S-SO 157 0 min 0,000 mm 0 W/m 9,9 C 10,4 C 17,7 km/h (3 Bft) 98 %
07.10.2014 06:20 11,6 C 11,5 C 11,6 C 90 % 1007,1 hPa 0,0 l/m 4,8 km/h (1 Bft) SO 135 0 min 0,000 mm 0 W/m 10,0 C 11,6 C 11,3 km/h (2 Bft) 97 %
07.10.2014 06:30 11,7 C 11,6 C 11,7 C 90 % 1007,2 hPa 0,0 l/m 3,2 km/h (1 Bft) S-SO 157 0 min 0,000 mm 0 W/m 10,1 C 11,7 C 9,7 km/h (2 Bft) 98 %
07.10.2014 06:40 11,6 C 11,6 C 11,7 C 91 % 1007,1 hPa 0,0 l/m 1,6 km/h (1 Bft) S-SO 157 0 min 0,000 mm 0 W/m 10,2 C 11,6 C 9,7 km/h (2 Bft) 97 %
07.10.2014 06:50 11,3 C 11,3 C 11,6 C 91 % 1007,1 hPa 0,0 l/m 0,0 km/h (0 Bft) S-SO 157 0 min 0,000 mm 0 W/m 9,9 C 11,3 C 4,8 km/h (1 Bft) 98 %
07.10.2014 07:00 11,3 C 11,2 C 11,3 C 90 % 1007,0 hPa 0,2 l/m 1,6 km/h (1 Bft) SO 135 0 min 0,000 mm 0 W/m 9,7 C 11,3 C 8,0 km/h (2 Bft) 97 %
07.10.2014 07:10 11,7 C 11,3 C 11,7 C 90 % 1007,0 hPa 0,0 l/m 1,6 km/h (1 Bft) SO 135 0 min 0,000 mm 0 W/m 10,1 C 11,7 C 14,5 km/h (3 Bft) 98 %
07.10.2014 07:20 12,1 C 11,7 C 12,1 C 90 % 1007,1 hPa 0,0 l/m 6,4 km/h (2 Bft) SO 135 0 min 0,000 mm 0 W/m 10,5 C 12,1 C 16,1 km/h (3 Bft) 98 %
07.10.2014 07:30 12,3 C 12,1 C 12,3 C 91 % 1006,9 hPa 0,0 l/m 6,4 km/h (2 Bft) SO 135 0 min 0,000 mm 0 W/m 10,9 C 12,3 C 16,1 km/h (3 Bft) 97 %
07.10.2014 07:40 12,4 C 12,3 C 12,4 C 91 % 1006,9 hPa 0,0 l/m 8,0 km/h (2 Bft) SO 135 0 min 0,000 mm 0 W/m 11,0 C 11,4 C 20,9 km/h (4 Bft) 98 %
07.10.2014 07:50 12,6 C 12,4 C 12,6 C 91 % 1006,8 hPa 0,0 l/m 6,4 km/h (2 Bft) SO 135 0 min 0,000 mm 0 W/m 11,2 C 12,6 C 14,5 km/h (3 Bft) 97 %
07.10.2014 08:00 12,6 C 12,5 C 12,6 C 91 % 1006,8 hPa 0,2 l/m 6,4 km/h (2 Bft) SO 135 0 min 0,000 mm 0 W/m 11,2 C 12,6 C 16,1 km/h (3 Bft) 98 %
07.10.2014 08:10 12,7 C 12,6 C 12,7 C 91 % 1006,7 hPa 0,2 l/m 3,2 km/h (1 Bft) SO 135 0 min 0,000 mm 9 W/m 11,3 C 12,7 C 11,3 km/h (2 Bft) 100 %
07.10.2014 08:20 12,7 C 12,6 C 12,7 C 91 % 1006,5 hPa 0,0 l/m 0,0 km/h (0 Bft) SO 135 0 min 0,000 mm 21 W/m 11,3 C 12,7 C 1,6 km/h (1 Bft) 99 %
07.10.2014 08:30 12,8 C 12,7 C 12,8 C 91 % 1006,4 hPa 0,0 l/m 3,2 km/h (1 Bft) SO 135 0 min 0,000 mm 14 W/m 11,4 C 12,8 C 9,7 km/h (2 Bft) 100 %
07.10.2014 08:40 12,8 C 12,7 C 12,8 C 91 % 1006,4 hPa 0,0 l/m 1,6 km/h (1 Bft) O-SO 112 0 min 0,000 mm 12 W/m 11,4 C 12,8 C 6,4 km/h (2 Bft) 100 %
07.10.2014 08:50 12,9 C 12,8 C 12,9 C 91 % 1006,2 hPa 0,0 l/m 1,6 km/h (1 Bft) SO 135 0 min 0,000 mm 42 W/m 11,5 C 12,9 C 6,4 km/h (2 Bft) 100 %
07.10.2014 09:00 13,0 C 12,9 C 13,0 C 91 % 1006,2 hPa 0,0 l/m 3,2 km/h (1 Bft) SO 135 0 min 0,025 mm 70 W/m 11,6 C 13,0 C 11,3 km/h (2 Bft) 99 %
07.10.2014 09:10 13,1 C 13,0 C 13,1 C 91 % 1006,4 hPa 0,0 l/m 1,6 km/h (1 Bft) SO 135 0 min 0,000 mm 53 W/m 11,7 C 13,1 C 8,0 km/h (2 Bft) 99 %
07.10.2014 09:20 13,1 C 13,1 C 13,1 C 91 % 1006,2 hPa 0,0 l/m 3,2 km/h (1 Bft) SO 135 0 min 0,000 mm 74 W/m 11,7 C 13,1 C 9,7 km/h (2 Bft) 100 %
07.10.2014 09:30 13,2 C 13,1 C 13,2 C 91 % 1006,0 hPa 0,0 l/m 3,2 km/h (1 Bft) SO 135 0 min 0,000 mm 79 W/m 11,8 C 13,2 C 9,7 km/h (2 Bft) 100 %
07.10.2014 09:40 13,3 C 13,2 C 13,3 C 90 % 1006,1 hPa 0,0 l/m 1,6 km/h (1 Bft) SO 135 0 min 0,000 mm 104 W/m 11,7 C 13,3 C 8,0 km/h (2 Bft) 100 %
07.10.2014 09:50 13,5 C 13,3 C 13,5 C 90 % 1006,1 hPa 0,0 l/m 1,6 km/h (1 Bft) SO 135 10 min 0,000 mm 160 W/m 11,9 C 13,5 C 9,7 km/h (2 Bft) 100 %
07.10.2014 10:00 13,7 C 13,5 C 13,7 C 89 % 1005,9 hPa 0,0 l/m 3,2 km/h (1 Bft) SO 135 0 min 0,051 mm 137 W/m 11,9 C 13,7 C 9,7 km/h (2 Bft) 100 %
07.10.2014 10:10 13,8 C 13,7 C 13,8 C 88 % 1006,0 hPa 0,0 l/m 3,2 km/h (1 Bft) SO 135 0 min 0,000 mm 83 W/m 11,8 C 13,8 C 12,9 km/h (3 Bft) 100 %
07.10.2014 10:20 13,9 C 13,8 C 13,9 C 87 % 1006,1 hPa 0,0 l/m 4,8 km/h (1 Bft) SO 135 0 min 0,000 mm 100 W/m 11,8 C 13,9 C 14,5 km/h (3 Bft) 100 %
07.10.2014 10:30 14,1 C 13,9 C 14,1 C 88 % 1006,2 hPa 0,0 l/m 4,8 km/h (1 Bft) S-SO 157 0 min 0,000 mm 102 W/m 12,1 C 14,1 C 17,7 km/h (3 Bft) 99 %
07.10.2014 10:40 14,3 C 14,1 C 14,3 C 87 % 1006,5 hPa 0,0 l/m 3,2 km/h (1 Bft) S-SO 157 0 min 0,000 mm 148 W/m 12,2 C 14,3 C 16,1 km/h (3 Bft) 100 %
07.10.2014 10:50 14,3 C 14,3 C 14,4 C 87 % 1006,5 hPa 0,0 l/m 3,2 km/h (1 Bft) S-SO 157 0 min 0,000 mm 105 W/m 12,2 C 14,3 C 11,3 km/h (2 Bft) 100 %
07.10.2014 11:00 14,4 C 14,3 C 14,4 C 87 % 1006,5 hPa 0,0 l/m 1,6 km/h (1 Bft) SO 135 10 min 0,051 mm 174 W/m 12,3 C 14,4 C 9,7 km/h (2 Bft) 100 %
07.10.2014 11:10 14,4 C 14,4 C 14,4 C 88 % 1006,4 hPa 0,0 l/m 3,2 km/h (1 Bft) S-SO 157 0 min 0,000 mm 120 W/m 12,4 C 14,4 C 16,1 km/h (3 Bft) 100 %
07.10.2014 11:20 14,4 C 14,4 C 14,4 C 87 % 1006,3 hPa 0,0 l/m 4,8 km/h (1 Bft) SO 135 0 min 0,000 mm 134 W/m 12,3 C 14,4 C 11,3 km/h (2 Bft) 100 %
07.10.2014 11:30 14,5 C 14,4 C 14,5 C 88 % 1006,0 hPa 0,0 l/m 6,4 km/h (2 Bft) SO 135 10 min 0,000 mm 202 W/m 12,5 C 14,5 C 17,7 km/h (3 Bft) 100 %
07.10.2014 11:40 14,8 C 14,5 C 14,8 C 86 % 1006,0 hPa 0,0 l/m 6,4 km/h (2 Bft) SO 135 10 min 0,000 mm 178 W/m 12,5 C 14,8 C 19,3 km/h (3 Bft) 99 %
07.10.2014 11:50 15,1 C 14,8 C 15,1 C 87 % 1006,0 hPa 0,0 l/m 4,8 km/h (1 Bft) SO 135 10 min 0,000 mm 206 W/m 13,0 C 15,1 C 16,1 km/h (3 Bft) 100 %
07.10.2014 12:00 15,3 C 15,0 C 15,3 C 85 % 1005,8 hPa 0,0 l/m 4,8 km/h (1 Bft) S-SO 157 10 min 0,102 mm 271 W/m 12,8 C 15,3 C 17,7 km/h (3 Bft) 100 %
07.10.2014 12:10 15,7 C 15,3 C 15,7 C 83 % 1005,7 hPa 0,0 l/m 9,7 km/h (2 Bft) S-SO 157 10 min 0,000 mm 246 W/m 12,8 C 14,0 C 22,5 km/h (4 Bft) 97 %
07.10.2014 12:20 16,3 C 15,7 C 16,3 C 80 % 1005,9 hPa 0,0 l/m 14,5 km/h (3 Bft) S-SO 157 10 min 0,000 mm 323 W/m 12,8 C 12,9 C 29,0 km/h (5 Bft) 100 %
07.10.2014 12:30 16,2 C 16,2 C 16,3 C 81 % 1006,5 hPa 0,0 l/m 9,7 km/h (2 Bft) S 180 0 min 0,000 mm 146 W/m 12,9 C 14,6 C 24,1 km/h (4 Bft) 100 %
07.10.2014 12:40 16,0 C 15,9 C 16,2 C 83 % 1007,0 hPa 0,2 l/m 14,5 km/h (3 Bft) S-SW 202 10 min 0,000 mm 155 W/m 13,1 C 12,6 C 30,6 km/h (5 Bft) 100 %
07.10.2014 12:50 15,6 C 15,6 C 15,9 C 86 % 1007,3 hPa 0,0 l/m 16,1 km/h (3 Bft) S-SW 202 0 min 0,000 mm 95 W/m 13,3 C 11,6 C 32,2 km/h (5 Bft) 100 %
07.10.2014 13:00 15,2 C 15,2 C 15,6 C 87 % 1007,3 hPa 0,0 l/m 14,5 km/h (3 Bft) S-SW 202 0 min 0,102 mm 98 W/m 13,0 C 11,6 C 27,4 km/h (4 Bft) 100 %
07.10.2014 13:10 15,1 C 15,1 C 15,2 C 88 % 1007,3 hPa 0,0 l/m 14,5 km/h (3 Bft) S-SW 202 0 min 0,000 mm 142 W/m 13,1 C 11,5 C 25,7 km/h (4 Bft) 100 %
07.10.2014 13:20 14,8 C 14,8 C 15,1 C 89 % 1007,5 hPa 0,2 l/m 16,1 km/h (3 Bft) S-SW 202 0 min 0,000 mm 121 W/m 13,0 C 10,6 C 27,4 km/h (4 Bft) 100 %
07.10.2014 13:30 14,6 C 14,6 C 14,8 C 89 % 1007,8 hPa 0,0 l/m 17,7 km/h (3 Bft) S-SW 202 0 min 0,000 mm 116 W/m 12,8 C 9,9 C 37,0 km/h (5 Bft) 100 %
07.10.2014 13:40 14,5 C 14,5 C 14,6 C 90 % 1007,8 hPa 0,0 l/m 12,9 km/h (3 Bft) S-SW 202 0 min 0,000 mm 116 W/m 12,9 C 11,3 C 24,1 km/h (4 Bft) 100 %
07.10.2014 13:50 14,4 C 14,4 C 14,5 C 90 % 1007,7 hPa 0,0 l/m 11,3 km/h (2 Bft) S-SW 202 0 min 0,000 mm 118 W/m 12,8 C 11,9 C 24,1 km/h (4 Bft) 100 %
07.10.2014 14:00 14,3 C 14,3 C 14,4 C 90 % 1007,7 hPa 0,0 l/m 8,0 km/h (2 Bft) S 180 0 min 0,051 mm 56 W/m 12,7 C 13,4 C 17,7 km/h (3 Bft) 100 %
07.10.2014 14:10 14,1 C 14,1 C 14,3 C 90 % 1007,6 hPa 0,0 l/m 4,8 km/h (1 Bft) S-SO 157 0 min 0,000 mm 56 W/m 12,5 C 14,1 C 16,1 km/h (3 Bft) 100 %
07.10.2014 14:20 14,1 C 14,1 C 14,1 C 90 % 1007,7 hPa 0,0 l/m 3,2 km/h (1 Bft) S-SO 157 0 min 0,000 mm 53 W/m 12,5 C 14,1 C 14,5 km/h (3 Bft) 100 %
07.10.2014 14:30 14,0 C 14,0 C 14,1 C 90 % 1007,8 hPa 0,0 l/m 4,8 km/h (1 Bft) S-SO 157 0 min 0,000 mm 49 W/m 12,4 C 14,0 C 16,1 km/h (3 Bft) 100 %
07.10.2014 14:40 13,9 C 13,9 C 14,0 C 90 % 1007,9 hPa 0,0 l/m 8,0 km/h (2 Bft) SO 135 0 min 0,000 mm 44 W/m 12,3 C 12,9 C 19,3 km/h (3 Bft) 100 %
07.10.2014 14:50 13,9 C 13,9 C 14,0 C 90 % 1007,9 hPa 0,0 l/m 4,8 km/h (1 Bft) S-SO 157 0 min 0,000 mm 44 W/m 12,3 C 13,9 C 17,7 km/h (3 Bft) 100 %
07.10.2014 15:00 13,9 C 13,9 C 13,9 C 90 % 1008,0 hPa 0,0 l/m 4,8 km/h (1 Bft) S-SO 157 0 min 0,025 mm 42 W/m 12,3 C 13,9 C 12,9 km/h (3 Bft) 99 %
07.10.2014 15:10 13,9 C 13,9 C 13,9 C 90 % 1007,9 hPa 0,0 l/m 1,6 km/h (1 Bft) S-SO 157 0 min 0,000 mm 39 W/m 12,3 C 13,9 C 16,1 km/h (3 Bft) 99 %
07.10.2014 15:20 13,9 C 13,9 C 13,9 C 90 % 1008,1 hPa 0,0 l/m 0,0 km/h (0 Bft) S 180 0 min 0,000 mm 40 W/m 12,3 C 13,9 C 6,4 km/h (2 Bft) 100 %
07.10.2014 15:30 14,0 C 13,9 C 14,0 C 90 % 1008,2 hPa 0,0 l/m 0,0 km/h (0 Bft) S 180 0 min 0,000 mm 49 W/m 12,4 C 14,0 C 1,6 km/h (1 Bft) 100 %
07.10.2014 15:40 14,0 C 14,0 C 14,0 C 90 % 1008,3 hPa 0,0 l/m 1,6 km/h (1 Bft) S-SW 202 0 min 0,000 mm 47 W/m 12,4 C 14,0 C 8,0 km/h (2 Bft) 100 %
07.10.2014 15:50 13,9 C 13,9 C 14,0 C 90 % 1008,1 hPa 0,0 l/m 1,6 km/h (1 Bft) S-SO 157 0 min 0,000 mm 47 W/m 12,3 C 13,9 C 8,0 km/h (2 Bft) 100 %
07.10.2014 16:00 13,9 C 13,9 C 14,0 C 90 % 1008,2 hPa 0,0 l/m 3,2 km/h (1 Bft) S 180 0 min 0,025 mm 67 W/m 12,3 C 13,9 C 9,7 km/h (2 Bft) 100 %
07.10.2014 16:10 14,1 C 13,9 C 14,1 C 91 % 1008,2 hPa 0,0 l/m 1,6 km/h (1 Bft) S-SO 157 0 min 0,000 mm 125 W/m 12,7 C 14,1 C 9,7 km/h (2 Bft) 100 %
07.10.2014 16:20 14,2 C 14,2 C 14,3 C 90 % 1008,1 hPa 0,0 l/m 3,2 km/h (1 Bft) S 180 0 min 0,000 mm 84 W/m 12,6 C 14,2 C 14,5 km/h (3 Bft) 100 %
07.10.2014 16:30 14,3 C 14,2 C 14,3 C 90 % 1008,0 hPa 0,0 l/m 3,2 km/h (1 Bft) S 180 0 min 0,000 mm 109 W/m 12,7 C 14,3 C 14,5 km/h (3 Bft) 100 %
07.10.2014 16:40 14,4 C 14,2 C 14,4 C 90 % 1008,2 hPa 0,0 l/m 4,7 km/h (1 Bft) S 174 0 min 0,000 mm 63 W/m 12,8 C 14,4 C 12,9 km/h (3 Bft) 97 %
07.10.2014 16:50 14,5 C 14,4 C 14,5 C 89 % 1008,2 hPa 0,0 l/m 4,4 km/h (1 Bft) S-SO 166 0 min 0,000 mm 47 W/m 12,7 C 14,5 C 14,5 km/h (3 Bft) 97 %
07.10.2014 17:00 14,5 C 14,5 C 14,6 C 89 % 1008,0 hPa 0,0 l/m 4,7 km/h (1 Bft) S 174 0 min 0,051 mm 60 W/m 12,7 C 14,5 C 14,5 km/h (3 Bft) 97 %
07.10.2014 17:10 14,6 C 14,5 C 14,6 C 88 % 1007,9 hPa 0,0 l/m 6,2 km/h (2 Bft) S-SO 162 0 min 0,000 mm 47 W/m 12,6 C 14,6 C 16,1 km/h (3 Bft) 97 %
07.10.2014 17:20 14,6 C 14,6 C 14,6 C 88 % 1007,8 hPa 0,0 l/m 6,7 km/h (2 Bft) SO 139 0 min 0,000 mm 33 W/m 12,6 C 14,4 C 14,5 km/h (3 Bft) 98 %
07.10.2014 17:30 14,6 C 14,6 C 14,6 C 88 % 1007,8 hPa 0,0 l/m 7,0 km/h (2 Bft) SO 143 0 min 0,000 mm 25 W/m 12,6 C 14,3 C 16,1 km/h (3 Bft) 97 %
07.10.2014 17:40 14,6 C 14,6 C 14,6 C 87 % 1007,7 hPa 0,0 l/m 10,9 km/h (2 Bft) S-SO 161 0 min 0,000 mm 21 W/m 12,5 C 12,3 C 19,3 km/h (3 Bft) 97 %
07.10.2014 17:50 14,7 C 14,6 C 14,7 C 88 % 1007,6 hPa 0,0 l/m 11,7 km/h (2 Bft) S-SO 148 0 min 0,000 mm 23 W/m 12,7 C 12,0 C 25,7 km/h (4 Bft) 98 %
07.10.2014 18:00 14,7 C 14,7 C 14,7 C 88 % 1007,9 hPa 0,0 l/m 11,2 km/h (2 Bft) S-SO 162 0 min 0,025 mm 12 W/m 12,7 C 12,3 C 20,9 km/h (4 Bft) 97 %
07.10.2014 18:10 14,8 C 14,7 C 14,8 C 88 % 1007,8 hPa 0,0 l/m 12,7 km/h (3 Bft) S 183 0 min 0,000 mm 9 W/m 12,8 C 11,8 C 24,1 km/h (4 Bft) 97 %
07.10.2014 18:20 14,8 C 14,7 C 14,8 C 87 % 1007,7 hPa 0,0 l/m 12,2 km/h (2 Bft) S 176 0 min 0,000 mm 11 W/m 12,7 C 12,0 C 27,4 km/h (4 Bft) 97 %
07.10.2014 18:30 14,8 C 14,8 C 14,8 C 87 % 1007,8 hPa 0,0 l/m 10,2 km/h (2 Bft) SO 140 0 min 0,000 mm 7 W/m 12,7 C 12,8 C 22,5 km/h (4 Bft) 97 %
07.10.2014 18:40 14,8 C 14,8 C 14,8 C 87 % 1007,9 hPa 0,0 l/m 11,2 km/h (2 Bft) SO 146 0 min 0,000 mm 0 W/m 12,7 C 12,4 C 20,9 km/h (4 Bft) 98 %
07.10.2014 18:50 14,8 C 14,8 C 14,8 C 86 % 1007,9 hPa 0,0 l/m 14,9 km/h (3 Bft) S-SO 150 0 min 0,000 mm 0 W/m 12,5 C 11,0 C 24,1 km/h (4 Bft) 97 %
07.10.2014 19:00 14,7 C 14,7 C 14,8 C 86 % 1008,0 hPa 0,0 l/m 13,5 km/h (3 Bft) SO 136 0 min 0,025 mm 0 W/m 12,4 C 11,4 C 25,7 km/h (4 Bft) 98 %
07.10.2014 19:10 14,6 C 14,6 C 14,7 C 86 % 1008,0 hPa 0,0 l/m 13,7 km/h (3 Bft) S-SO 159 0 min 0,000 mm 0 W/m 12,3 C 11,2 C 24,1 km/h (4 Bft) 97 %
07.10.2014 19:20 14,6 C 14,6 C 14,6 C 86 % 1008,0 hPa 0,0 l/m 12,8 km/h (3 Bft) S-SW 196 0 min 0,000 mm 0 W/m 12,3 C 11,5 C 22,5 km/h (4 Bft) 98 %
07.10.2014 19:30 14,6 C 14,6 C 14,6 C 86 % 1008,0 hPa 0,0 l/m 13,5 km/h (3 Bft) S-SO 151 0 min 0,000 mm 0 W/m 12,3 C 11,2 C 27,4 km/h (4 Bft) 97 %
07.10.2014 19:40 14,5 C 14,5 C 14,6 C 85 % 1008,1 hPa 0,0 l/m 12,8 km/h (3 Bft) S 174 0 min 0,000 mm 0 W/m 12,0 C 11,4 C 27,4 km/h (4 Bft) 97 %
07.10.2014 19:50 14,4 C 14,4 C 14,6 C 85 % 1008,2 hPa 0,0 l/m 12,3 km/h (3 Bft) S-SO 153 0 min 0,000 mm 0 W/m 11,9 C 11,5 C 24,1 km/h (4 Bft) 98 %
07.10.2014 20:00 14,4 C 14,4 C 14,5 C 85 % 1008,4 hPa 0,0 l/m 13,0 km/h (3 Bft) S 177 0 min 0,000 mm 0 W/m 11,9 C 11,2 C 27,4 km/h (4 Bft) 97 %
07.10.2014 20:10 14,3 C 14,3 C 14,4 C 84 % 1008,6 hPa 0,0 l/m 11,9 km/h (2 Bft) SO 129 0 min 0,025 mm 0 W/m 11,6 C 11,5 C 24,1 km/h (4 Bft) 97 %
07.10.2014 20:20 14,2 C 14,2 C 14,3 C 85 % 1008,6 hPa 0,0 l/m 11,0 km/h (2 Bft) S-SO 147 0 min 0,001 mm 0 W/m 11,7 C 11,8 C 20,9 km/h (4 Bft) 97 %
07.10.2014 20:30 14,2 C 14,2 C 14,2 C 85 % 1008,8 hPa 0,0 l/m 8,7 km/h (2 Bft) S-SW 205 0 min 0,000 mm 0 W/m 11,7 C 12,9 C 24,1 km/h (4 Bft) 98 %
07.10.2014 20:40 14,0 C 14,0 C 14,2 C 85 % 1008,8 hPa 0,0 l/m 8,9 km/h (2 Bft) S-SO 163 0 min 0,000 mm 0 W/m 11,5 C 12,6 C 20,9 km/h (4 Bft) 98 %
07.10.2014 20:50 14,0 C 13,9 C 14,0 C 85 % 1008,8 hPa 0,0 l/m 8,4 km/h (2 Bft) S-SO 159 0 min 0,000 mm 0 W/m 11,5 C 12,8 C 19,3 km/h (3 Bft) 97 %
07.10.2014 21:00 14,1 C 14,0 C 14,1 C 85 % 1009,0 hPa 0,0 l/m 8,3 km/h (2 Bft) S 190 0 min 0,025 mm 0 W/m 11,6 C 13,0 C 19,3 km/h (3 Bft) 98 %
07.10.2014 21:10 14,0 C 14,0 C 14,1 C 86 % 1008,9 hPa 0,0 l/m 6,4 km/h (2 Bft) S-SO 157 0 min 0,000 mm 0 W/m 11,7 C 14,0 C 17,7 km/h (3 Bft) 100 %
07.10.2014 21:20 14,1 C 14,0 C 14,1 C 85 % 1008,8 hPa 0,0 l/m 8,0 km/h (2 Bft) S-SO 157 0 min 0,000 mm 0 W/m 11,6 C 13,2 C 22,5 km/h (4 Bft) 100 %
07.10.2014 21:30 14,2 C 14,1 C 14,2 C 86 % 1009,0 hPa 0,0 l/m 8,0 km/h (2 Bft) S-SO 157 0 min 0,000 mm 0 W/m 11,9 C 13,3 C 19,3 km/h (3 Bft) 100 %
07.10.2014 21:40 14,2 C 14,2 C 14,3 C 86 % 1009,3 hPa 0,0 l/m 6,4 km/h (2 Bft) S 180 0 min 0,000 mm 0 W/m 11,9 C 14,2 C 16,1 km/h (3 Bft) 100 %
07.10.2014 21:50 14,2 C 14,1 C 14,2 C 87 % 1009,3 hPa 0,0 l/m 9,7 km/h (2 Bft) S-SO 157 0 min 0,000 mm 0 W/m 12,1 C 12,4 C 19,3 km/h (3 Bft) 100 %
07.10.2014 22:00 14,3 C 14,2 C 14,3 C 87 % 1009,6 hPa 0,0 l/m 6,4 km/h (2 Bft) S 180 0 min 0,025 mm 0 W/m 12,2 C 14,3 C 17,7 km/h (3 Bft) 100 %
07.10.2014 22:10 14,2 C 14,2 C 14,3 C 88 % 1009,7 hPa 0,0 l/m 6,4 km/h (2 Bft) S-SW 202 0 min 0,000 mm 0 W/m 12,2 C 14,2 C 16,1 km/h (3 Bft) 100 %
07.10.2014 22:20 14,2 C 14,2 C 14,2 C 88 % 1010,0 hPa 0,0 l/m 9,7 km/h (2 Bft) S-SW 202 0 min 0,000 mm 0 W/m 12,2 C 12,4 C 22,5 km/h (4 Bft) 100 %
07.10.2014 22:30 14,2 C 14,2 C 14,3 C 88 % 1010,1 hPa 0,0 l/m 6,4 km/h (2 Bft) S-SW 202 0 min 0,000 mm 0 W/m 12,2 C 14,2 C 20,9 km/h (4 Bft) 100 %
07.10.2014 22:40 14,2 C 14,2 C 14,2 C 87 % 1010,6 hPa 0,0 l/m 12,9 km/h (3 Bft) SW 225 0 min 0,000 mm 0 W/m 12,1 C 11,0 C 27,4 km/h (4 Bft) 100 %
07.10.2014 22:50 14,4 C 14,2 C 14,4 C 85 % 1010,7 hPa 0,0 l/m 11,3 km/h (2 Bft) S-SW 202 0 min 0,000 mm 0 W/m 11,9 C 11,9 C 22,5 km/h (4 Bft) 100 %
07.10.2014 23:00 14,6 C 14,4 C 14,6 C 85 % 1010,6 hPa 0,0 l/m 9,7 km/h (2 Bft) W-SW 247 0 min 0,025 mm 0 W/m 12,1 C 12,8 C 27,4 km/h (4 Bft) 100 %
07.10.2014 23:10 14,6 C 14,6 C 14,6 C 84 % 1010,8 hPa 0,0 l/m 8,0 km/h (2 Bft) W-SW 247 0 min 0,000 mm 0 W/m 11,9 C 13,7 C 22,5 km/h (4 Bft) 100 %
07.10.2014 23:20 14,6 C 14,6 C 14,6 C 84 % 1011,0 hPa 0,0 l/m 9,7 km/h (2 Bft) W-SW 247 0 min 0,000 mm 0 W/m 11,9 C 12,8 C 19,3 km/h (3 Bft) 100 %
07.10.2014 23:30 14,6 C 14,6 C 14,6 C 85 % 1011,1 hPa 0,0 l/m 4,8 km/h (1 Bft) W-SW 247 0 min 0,000 mm 0 W/m 12,1 C 14,6 C 14,5 km/h (3 Bft) 100 %
07.10.2014 23:40 14,5 C 14,5 C 14,6 C 85 % 1011,3 hPa 0,0 l/m 6,4 km/h (2 Bft) W-SW 247 0 min 0,000 mm 0 W/m 12,0 C 14,5 C 17,7 km/h (3 Bft) 90 %
07.10.2014 23:50 14,4 C 14,4 C 14,5 C 86 % 1011,5 hPa 0,0 l/m 6,4 km/h (2 Bft) W-SW 247 0 min 0,000 mm 0 W/m 12,1 C 14,4 C 16,1 km/h (3 Bft) 100 %
_ Min-Zeit 02:10 02:10 02:20 12:20 12:10 - 00:00 - - - - - 02:10 02:10 00:30 05:00
Minimum _ 8,0 C 8,0 C 8,0 C 80 % 1005,7 hPa - 0,0 km/h (0 Bft) - - - - - 6,6 C 8,0 C 0,0 km/h (0 Bft) 89 %
_ Max-Zeit 12:20 12:30 12:20 00:00 23:50 05:00 13:30 - - 09:50 12:00 12:20 12:50 12:00 13:30 08:30
Maximum _ 16,3 C 16,2 C 16,3 C 91 % 1011,5 hPa 0,4 l/m 17,7 km/h
S-SW (3 Bft)
- - 10 min 0,102 mm 323 W/m 13,3 C 15,3 C 37,0 km/h
SW (5 Bft)
100 %
Durchschnitt _ 12,7 C 12,6 C 12,7 C 89 % 1007,9 hPa #2,6 l/m 5,4 km/h (1 Bft) SO - #1:30 h #0,634 mm 89 W/m 10,8 C 11,9 C 14,0 km/h (3 Bft) 98 %
PRIVATE WETTERSTATION BILLIGHEIM-ALLFELD - www.neckar-odenwald-wetter.de - Holger Sonntag